createdAt,value
2023-01-19T00:01:36.744Z,56.10
2023-01-19T00:04:04.768Z,57.25
2023-01-19T00:06:32.829Z,56.97
2023-01-19T00:09:00.759Z,61.63
2023-01-19T00:11:28.507Z,57.17
2023-01-19T00:13:56.655Z,51.85
2023-01-19T00:16:24.417Z,57.05
2023-01-19T00:18:53.123Z,56.40
2023-01-19T00:21:24.676Z,56.00
2023-01-19T00:23:52.875Z,53.13
2023-01-19T00:26:22.288Z,59.17
2023-01-19T00:28:50.455Z,58.05
2023-01-19T00:31:20.733Z,56.58
2023-01-19T00:33:50.158Z,53.90
2023-01-19T00:36:18.422Z,58.88
2023-01-19T00:38:46.388Z,60.05
2023-01-19T00:41:14.173Z,55.85
2023-01-19T00:43:42.037Z,56.70
2023-01-19T00:46:10.176Z,52.60
2023-01-19T00:48:38.086Z,56.83
2023-01-19T00:51:05.909Z,60.28
2023-01-19T00:53:33.834Z,56.65
2023-01-19T00:56:01.479Z,53.58
2023-01-19T00:58:29.494Z,55.38
2023-01-19T01:01:03.394Z,52.00
2023-01-19T01:03:32.219Z,57.40
2023-01-19T01:06:00.015Z,60.60
2023-01-19T01:08:28.015Z,58.25
2023-01-19T01:10:56.064Z,54.95
2023-01-19T01:13:27.298Z,57.67
2023-01-19T01:15:57.038Z,52.28
2023-01-19T01:18:25.308Z,56.10
2023-01-19T01:20:55.269Z,56.25
2023-01-19T01:23:24.228Z,57.20
2023-01-19T01:25:51.963Z,58.95
2023-01-19T01:28:20.169Z,60.75
2023-01-19T01:30:47.927Z,51.28
2023-01-19T01:33:15.960Z,58.35
2023-01-19T01:36:03.798Z,59.15
2023-01-19T01:38:31.754Z,58.97
2023-01-19T01:40:59.403Z,57.55
2023-01-19T01:43:44.808Z,56.42
2023-01-19T01:46:15.552Z,60.53
2023-01-19T01:49:02.698Z,57.63
2023-01-19T01:51:52.831Z,56.80
2023-01-19T01:54:46.792Z,54.85
2023-01-19T01:57:14.995Z,57.60
2023-01-19T01:59:48.345Z,60.10
2023-01-19T02:02:41.696Z,57.67
2023-01-19T02:05:27.350Z,58.33
2023-01-19T02:08:17.549Z,62.25
2023-01-19T02:11:05.082Z,60.50
2023-01-19T02:13:36.995Z,56.60
2023-01-19T02:16:08.534Z,57.10
2023-01-19T02:18:37.369Z,59.83
2023-01-19T02:21:21.182Z,58.10
2023-01-19T02:24:01.738Z,62.80
2023-01-19T02:26:46.993Z,56.33
2023-01-19T02:29:22.799Z,54.33
2023-01-19T02:31:51.037Z,56.15
2023-01-19T02:34:20.949Z,54.90
2023-01-19T02:36:57.452Z,52.90
2023-01-19T02:39:35.163Z,58.28
2023-01-19T02:42:12.402Z,53.92
2023-01-19T02:44:43.459Z,55.25
2023-01-19T02:47:12.364Z,54.38
2023-01-19T02:49:40.099Z,49.25
2023-01-19T02:52:15.988Z,50.97
2023-01-19T02:54:54.203Z,55.50
2023-01-19T02:57:27.930Z,52.53
2023-01-19T03:00:01.396Z,54.17
2023-01-19T03:02:44.205Z,52.85
2023-01-19T03:05:38.187Z,53.15
2023-01-19T03:08:20.905Z,59.08
2023-01-19T03:10:54.733Z,60.60
2023-01-19T03:13:28.109Z,58.90
2023-01-19T03:16:06.123Z,61.95
2023-01-19T03:18:38.285Z,53.50
2023-01-19T03:21:07.947Z,60.15
2023-01-19T03:23:38.776Z,58.10
2023-01-19T03:26:11.508Z,56.20
2023-01-19T03:28:42.110Z,61.80
2023-01-19T03:31:21.605Z,55.90
2023-01-19T03:33:56.520Z,59.35
2023-01-19T03:36:36.179Z,60.03
2023-01-19T03:39:07.934Z,56.97
2023-01-19T03:41:37.780Z,54.33
2023-01-19T03:44:07.796Z,57.60
2023-01-19T03:46:35.703Z,62.70
2023-01-19T03:49:03.643Z,62.55
2023-01-19T03:51:34.961Z,60.60
2023-01-19T03:54:03.291Z,65.22
2023-01-19T03:56:30.983Z,66.32
2023-01-19T03:58:59.042Z,58.00
2023-01-19T04:01:26.965Z,59.22
2023-01-19T04:03:55.047Z,53.65
2023-01-19T04:06:23.124Z,56.42
2023-01-19T04:08:51.689Z,46.53
2023-01-19T04:11:19.459Z,58.63
2023-01-19T04:13:47.486Z,54.40
2023-01-19T04:16:20.085Z,53.63
2023-01-19T04:18:48.637Z,55.63
2023-01-19T04:21:16.621Z,50.70
2023-01-19T04:23:46.022Z,54.28
2023-01-19T04:26:13.960Z,51.78
2023-01-19T04:28:41.950Z,53.25
2023-01-19T04:31:09.911Z,45.97
2023-01-19T04:33:37.830Z,48.47
2023-01-19T04:36:05.913Z,53.78
2023-01-19T04:38:33.875Z,52.88
2023-01-19T04:41:01.527Z,59.25
2023-01-19T04:43:29.733Z,57.10
2023-01-19T04:45:57.534Z,56.22
2023-01-19T04:48:25.623Z,55.47
2023-01-19T04:50:53.991Z,56.88
2023-01-19T04:53:21.975Z,52.33
2023-01-19T04:55:56.587Z,55.75
2023-01-19T04:58:24.600Z,58.03
2023-01-19T05:00:53.196Z,59.13
2023-01-19T05:03:21.431Z,57.92
2023-01-19T05:05:49.336Z,54.83
2023-01-19T05:08:17.390Z,52.03
2023-01-19T05:10:45.124Z,60.88
2023-01-19T05:13:14.104Z,53.53
2023-01-19T05:15:41.925Z,52.75
2023-01-19T05:18:10.413Z,55.70
2023-01-19T05:20:38.178Z,54.97
2023-01-19T05:23:06.057Z,55.42
2023-01-19T05:25:33.739Z,56.60
2023-01-19T05:28:03.273Z,56.88
2023-01-19T05:30:31.167Z,59.05
2023-01-19T05:32:59.436Z,60.05
2023-01-19T05:35:35.721Z,59.63
2023-01-19T05:38:05.314Z,60.40
2023-01-19T05:40:33.453Z,55.90
2023-01-19T05:43:05.210Z,64.93
2023-01-19T05:45:33.603Z,53.10
2023-01-19T05:48:01.854Z,44.80
2023-01-19T05:50:29.764Z,41.45
2023-01-19T05:52:58.576Z,42.00
2023-01-19T05:55:26.857Z,43.47
2023-01-19T05:57:54.800Z,42.25
2023-01-19T06:00:22.681Z,38.53
2023-01-19T06:02:50.539Z,40.95
2023-01-19T06:05:18.447Z,41.13
2023-01-19T06:07:46.509Z,43.95
2023-01-19T06:10:14.181Z,46.25
2023-01-19T06:12:42.361Z,42.50
2023-01-19T06:15:10.392Z,50.28
2023-01-19T06:17:38.357Z,43.85
2023-01-19T06:20:07.126Z,38.03
2023-01-19T06:22:35.090Z,43.60
2023-01-19T06:25:02.915Z,41.55
2023-01-19T06:27:30.878Z,45.92
2023-01-19T06:29:58.488Z,42.90
2023-01-19T06:32:26.430Z,41.50
2023-01-19T06:34:54.278Z,41.90
2023-01-19T06:37:22.442Z,38.35
2023-01-19T06:39:50.127Z,41.35
2023-01-19T06:42:18.102Z,40.28
2023-01-19T06:44:48.124Z,44.65
2023-01-19T06:47:16.961Z,44.45
2023-01-19T06:49:44.740Z,45.15
2023-01-19T06:52:16.073Z,41.85
2023-01-19T06:54:45.272Z,43.70
2023-01-19T06:57:15.240Z,46.10
2023-01-19T06:59:42.934Z,50.55
2023-01-19T07:02:26.255Z,47.05
2023-01-19T07:04:55.219Z,53.08
2023-01-19T07:07:23.150Z,48.55
2023-01-19T07:09:53.677Z,46.97
2023-01-19T07:12:22.826Z,42.97
2023-01-19T07:14:50.568Z,53.22
2023-01-19T07:17:19.002Z,42.38
2023-01-19T07:19:47.033Z,44.67
2023-01-19T07:22:15.035Z,39.85
2023-01-19T07:24:43.196Z,41.60
2023-01-19T07:27:13.963Z,44.10
2023-01-19T07:29:42.397Z,41.65
2023-01-19T07:32:10.371Z,41.28
2023-01-19T07:34:38.064Z,38.05
2023-01-19T07:37:06.073Z,38.88
2023-01-19T07:39:36.655Z,36.38
2023-01-19T07:42:04.877Z,42.20
2023-01-19T07:44:32.698Z,46.13
2023-01-19T07:47:00.715Z,44.47
2023-01-19T07:49:28.374Z,42.70
2023-01-19T07:51:56.499Z,44.90
2023-01-19T07:54:24.301Z,43.00
2023-01-19T07:56:55.101Z,43.92
2023-01-19T07:59:22.818Z,41.65
2023-01-19T08:01:52.262Z,38.25
2023-01-19T08:04:20.327Z,44.58
2023-01-19T08:06:48.359Z,44.67
2023-01-19T08:09:15.967Z,45.80
2023-01-19T08:11:43.903Z,41.92
2023-01-19T08:14:11.635Z,48.67
2023-01-19T08:16:39.708Z,51.80
2023-01-19T08:19:07.462Z,51.28
2023-01-19T08:21:36.464Z,48.70
2023-01-19T08:24:04.535Z,44.08
2023-01-19T08:26:34.911Z,49.72
2023-01-19T08:29:05.189Z,48.38
2023-01-19T08:31:33.613Z,59.70
2023-01-19T08:34:01.419Z,63.83
2023-01-19T08:36:29.364Z,53.22
2023-01-19T08:38:57.203Z,55.80
2023-01-19T08:41:25.191Z,50.92
2023-01-19T08:43:52.860Z,55.08
2023-01-19T08:46:21.982Z,50.30
2023-01-19T08:48:50.470Z,46.22
2023-01-19T08:51:19.394Z,46.38
2023-01-19T08:53:47.081Z,43.88
2023-01-19T08:56:15.160Z,52.53
2023-01-19T08:58:44.555Z,47.70
2023-01-19T09:01:15.006Z,50.83
2023-01-19T09:03:43.728Z,46.45
2023-01-19T09:06:14.776Z,47.17
2023-01-19T09:08:42.770Z,48.55
2023-01-19T09:11:12.998Z,46.55
2023-01-19T09:13:41.563Z,42.10
2023-01-19T09:16:12.778Z,42.63
2023-01-19T09:18:40.573Z,37.85
2023-01-19T09:21:09.095Z,39.15
2023-01-19T09:23:37.216Z,39.97
2023-01-19T09:26:06.486Z,38.08
2023-01-19T09:28:34.300Z,41.65
2023-01-19T09:31:07.595Z,39.15
2023-01-19T09:33:36.021Z,41.10
2023-01-19T09:36:04.385Z,39.75
2023-01-19T09:38:32.963Z,44.13
2023-01-19T09:41:01.592Z,46.63
2023-01-19T09:43:35.382Z,39.85
2023-01-19T09:46:16.920Z,45.10
2023-01-19T09:48:56.574Z,43.08
2023-01-19T09:51:28.059Z,47.15
2023-01-19T09:54:14.719Z,44.55
2023-01-19T09:56:49.963Z,41.47
2023-01-19T09:59:30.544Z,39.13
2023-01-19T10:02:13.679Z,44.13
2023-01-19T10:05:22.629Z,50.17
2023-01-19T10:08:06.131Z,44.88
2023-01-19T10:10:36.170Z,45.20
2023-01-19T10:13:12.736Z,44.47
2023-01-19T10:15:58.417Z,53.72
2023-01-19T10:18:34.954Z,48.58
2023-01-19T10:21:06.213Z,47.90
2023-01-19T10:23:55.760Z,53.30
2023-01-19T10:26:29.272Z,44.95
2023-01-19T10:29:05.390Z,40.08
2023-01-19T10:31:35.958Z,44.92
2023-01-19T10:34:04.610Z,39.13
2023-01-19T10:36:38.296Z,41.40
2023-01-19T10:39:07.252Z,42.55
2023-01-19T10:41:44.002Z,40.92
2023-01-19T10:44:12.347Z,38.40
2023-01-19T10:46:44.103Z,40.03
2023-01-19T10:49:28.457Z,41.10
2023-01-19T10:54:27.632Z,37.10
2023-01-19T10:57:05.984Z,38.40
2023-01-19T10:59:45.028Z,34.80
2023-01-19T11:02:18.497Z,37.13
2023-01-19T11:04:52.911Z,39.47
2023-01-19T11:07:26.606Z,37.17
2023-01-19T11:10:28.557Z,35.95
2023-01-19T11:12:56.565Z,33.97
2023-01-19T11:15:28.413Z,37.80
2023-01-19T11:17:56.365Z,36.92
2023-01-19T11:20:28.310Z,35.95
2023-01-19T11:23:14.460Z,41.97
2023-01-19T11:25:47.853Z,36.60
2023-01-19T11:28:24.258Z,37.40
2023-01-19T11:31:10.804Z,40.33
2023-01-19T11:33:42.467Z,42.03
2023-01-19T11:36:23.260Z,38.10
2023-01-19T11:38:54.074Z,39.55
2023-01-19T11:41:23.570Z,38.83
2023-01-19T11:43:55.468Z,38.30
2023-01-19T11:46:27.031Z,40.70
2023-01-19T11:49:04.972Z,37.95
2023-01-19T11:51:42.757Z,40.53
2023-01-19T11:54:23.863Z,43.25
2023-01-19T11:56:54.022Z,39.97
2023-01-19T11:59:25.029Z,38.25
2023-01-19T12:01:57.867Z,39.03
2023-01-19T12:04:36.342Z,37.60
2023-01-19T12:07:08.981Z,33.97
2023-01-19T12:09:51.644Z,37.55
2023-01-19T12:12:41.112Z,53.47
2023-01-19T12:15:34.894Z,95.40
2023-01-19T12:18:05.751Z,93.95
2023-01-19T12:20:44.331Z,42.53
2023-01-19T12:23:31.286Z,40.65
2023-01-19T12:26:08.751Z,46.13
2023-01-19T12:28:42.466Z,44.88
2023-01-19T12:31:14.338Z,41.90
2023-01-19T12:33:42.512Z,45.65
2023-01-19T12:36:30.181Z,45.40
2023-01-19T12:39:04.366Z,46.63
2023-01-19T12:44:16.591Z,51.38
2023-01-19T12:46:50.522Z,55.00
2023-01-19T12:49:33.100Z,48.97
2023-01-19T12:52:19.701Z,50.28
2023-01-19T12:54:58.736Z,53.10
2023-01-19T12:57:41.343Z,45.85
2023-01-19T13:00:32.403Z,42.28
2023-01-19T13:03:02.966Z,41.38
2023-01-19T13:05:39.613Z,47.97
2023-01-19T13:08:07.865Z,47.25
2023-01-19T13:11:01.963Z,45.58
2023-01-19T13:13:42.392Z,38.28
2023-01-19T13:16:19.593Z,35.20
2023-01-19T13:18:53.012Z,36.92
2023-01-19T13:21:36.702Z,36.88
2023-01-19T13:24:09.814Z,40.45
2023-01-19T13:26:49.805Z,34.10
2023-01-19T13:29:30.223Z,35.10
2023-01-19T13:32:03.500Z,34.47
2023-01-19T13:34:44.158Z,36.00
2023-01-19T13:37:27.374Z,37.05
2023-01-19T13:39:55.639Z,31.20
2023-01-19T13:42:41.938Z,29.58
2023-01-19T13:45:27.007Z,33.50
2023-01-19T13:47:57.099Z,35.05
2023-01-19T13:50:31.287Z,31.67
2023-01-19T13:52:59.424Z,31.23
2023-01-19T13:55:30.445Z,32.13
2023-01-19T13:57:58.883Z,32.10
2023-01-19T14:00:31.202Z,29.27
2023-01-19T14:03:13.426Z,28.80
2023-01-19T14:05:43.442Z,31.25
2023-01-19T14:08:11.447Z,32.20
2023-01-19T14:10:54.189Z,39.35
2023-01-19T14:13:26.365Z,36.72
2023-01-19T14:15:58.687Z,33.67
2023-01-19T14:18:31.467Z,35.08
2023-01-19T14:20:59.150Z,33.72
2023-01-19T14:23:50.843Z,37.40
2023-01-19T14:26:43.570Z,35.30
2023-01-19T14:29:23.808Z,33.78
2023-01-19T14:31:53.368Z,29.20
2023-01-19T14:34:33.257Z,31.73
2023-01-19T14:37:02.599Z,33.17
2023-01-19T14:39:36.210Z,32.28
2023-01-19T14:42:06.765Z,38.38
2023-01-19T14:44:41.062Z,34.72
2023-01-19T14:47:30.413Z,35.10
2023-01-19T14:50:02.862Z,35.95
2023-01-19T14:52:42.271Z,28.42
2023-01-19T14:55:21.328Z,32.25
2023-01-19T14:57:49.202Z,33.40
2023-01-19T15:00:19.358Z,32.40
2023-01-19T15:02:47.918Z,34.30
2023-01-19T15:05:16.559Z,42.60
2023-01-19T15:07:46.228Z,36.65
2023-01-19T15:10:23.832Z,46.40
2023-01-19T15:12:52.997Z,44.45
2023-01-19T15:15:26.835Z,80.07
2023-01-19T15:17:56.199Z,82.00
2023-01-19T15:20:24.607Z,80.35
2023-01-19T15:22:52.263Z,85.75
2023-01-19T15:25:23.065Z,78.45
2023-01-19T15:27:50.805Z,52.47
2023-01-19T15:30:33.676Z,51.38
2023-01-19T15:33:01.986Z,43.10
2023-01-19T15:35:29.920Z,35.58
2023-01-19T15:37:57.811Z,38.42
2023-01-19T15:40:25.929Z,40.38
2023-01-19T15:42:53.490Z,47.28
2023-01-19T15:45:35.005Z,50.33
2023-01-19T15:48:07.884Z,50.72
2023-01-19T15:50:38.841Z,45.45
2023-01-19T15:53:07.849Z,46.78
2023-01-19T15:55:35.741Z,44.88
2023-01-19T15:58:03.588Z,44.08
2023-01-19T16:00:33.327Z,39.40
2023-01-19T16:03:02.613Z,40.35
2023-01-19T16:05:42.631Z,37.88
2023-01-19T16:08:12.117Z,35.53
2023-01-19T16:10:41.923Z,38.80
2023-01-19T16:13:12.047Z,35.03
2023-01-19T16:15:42.493Z,34.30
2023-01-19T16:18:10.355Z,37.58
2023-01-19T16:20:38.337Z,35.00
2023-01-19T16:23:21.122Z,36.78
2023-01-19T16:26:00.922Z,36.35
2023-01-19T16:28:28.699Z,29.27
2023-01-19T16:30:56.647Z,31.65
2023-01-19T16:33:24.262Z,31.02
2023-01-19T16:35:52.779Z,35.50
2023-01-19T16:38:21.832Z,36.83
2023-01-19T16:40:50.030Z,38.33
2023-01-19T16:43:18.688Z,41.83
2023-01-19T16:46:01.261Z,34.92
2023-01-19T16:48:29.884Z,39.05
2023-01-19T16:51:03.371Z,36.83
2023-01-19T16:53:32.473Z,34.13
2023-01-19T16:56:04.295Z,33.00
2023-01-19T16:58:32.024Z,33.60
2023-01-19T17:01:00.032Z,33.97
2023-01-19T17:03:27.702Z,29.95
2023-01-19T17:05:55.670Z,30.50
2023-01-19T17:08:23.399Z,31.00
2023-01-19T17:10:51.418Z,28.33
2023-01-19T17:13:19.064Z,29.20
2023-01-19T17:15:47.167Z,27.63
2023-01-19T17:18:14.834Z,28.77
2023-01-19T17:20:42.762Z,30.88
2023-01-19T17:23:10.432Z,28.08
2023-01-19T17:25:38.353Z,28.50
2023-01-19T17:28:05.998Z,30.88
2023-01-19T17:30:34.182Z,34.53
2023-01-19T17:33:01.881Z,29.35
2023-01-19T17:35:29.792Z,33.22
2023-01-19T17:37:58.369Z,35.33
2023-01-19T17:40:26.252Z,36.92
2023-01-19T17:42:53.904Z,35.47
2023-01-19T17:45:21.827Z,35.00
2023-01-19T17:47:52.665Z,37.25
2023-01-19T17:50:20.534Z,33.38
2023-01-19T17:52:48.291Z,36.97
2023-01-19T17:55:17.735Z,35.30
2023-01-19T17:57:45.588Z,35.38
2023-01-19T18:00:14.513Z,37.47
2023-01-19T18:02:42.444Z,34.85
2023-01-19T18:05:12.693Z,38.78
2023-01-19T18:07:40.700Z,34.67
2023-01-19T18:10:09.515Z,36.47
2023-01-19T18:12:37.439Z,38.83
2023-01-19T18:15:07.002Z,36.10
2023-01-19T18:17:34.749Z,41.15
2023-01-19T18:20:02.838Z,40.15
2023-01-19T18:22:31.643Z,41.55
2023-01-19T18:25:01.581Z,46.83
2023-01-19T18:27:29.471Z,48.55
2023-01-19T18:29:57.720Z,53.00
2023-01-19T18:32:27.165Z,49.35
2023-01-19T18:34:55.529Z,51.40
2023-01-19T18:37:23.187Z,52.53
2023-01-19T18:39:51.185Z,48.75
2023-01-19T18:42:18.816Z,47.05
2023-01-19T18:44:46.732Z,46.83
2023-01-19T18:47:14.579Z,47.97
2023-01-19T18:49:42.512Z,48.05
2023-01-19T18:52:10.317Z,50.90
2023-01-19T18:54:38.285Z,48.47
2023-01-19T18:57:05.894Z,48.25
2023-01-19T18:59:33.925Z,50.90
2023-01-19T19:02:01.716Z,53.80
2023-01-19T19:04:29.681Z,57.08
2023-01-19T19:06:57.386Z,56.13
2023-01-19T19:09:25.339Z,56.67
2023-01-19T19:11:53.007Z,64.70
2023-01-19T19:14:20.868Z,60.83
2023-01-19T19:16:48.505Z,60.38
2023-01-19T19:19:17.074Z,60.20
2023-01-19T19:21:45.061Z,60.08
2023-01-19T19:24:13.514Z,58.70
2023-01-19T19:26:41.989Z,58.42
2023-01-19T19:29:09.880Z,60.80
2023-01-19T19:31:37.533Z,59.97
2023-01-19T19:34:05.755Z,61.08
2023-01-19T19:36:33.626Z,69.03
2023-01-19T19:39:01.600Z,65.65
2023-01-19T19:41:29.943Z,73.55
2023-01-19T19:43:58.583Z,71.03
2023-01-19T19:46:27.090Z,69.05
2023-01-19T19:48:55.532Z,71.70
2023-01-19T19:51:27.068Z,70.00
2023-01-19T19:53:57.417Z,73.28
2023-01-19T19:56:27.993Z,66.78
2023-01-19T19:58:58.154Z,72.38
2023-01-19T20:01:32.524Z,74.00
2023-01-19T20:04:09.535Z,73.85
2023-01-19T20:06:40.967Z,68.18
2023-01-19T20:09:10.636Z,71.90
2023-01-19T20:11:38.477Z,80.10
2023-01-19T20:14:08.185Z,70.50
2023-01-19T20:16:36.376Z,66.55
2023-01-19T20:19:05.058Z,70.68
2023-01-19T20:21:38.179Z,71.30
2023-01-19T20:24:09.853Z,68.55
2023-01-19T20:26:41.026Z,68.78
2023-01-19T20:29:10.712Z,68.07
2023-01-19T20:31:43.199Z,67.88
2023-01-19T20:34:13.235Z,68.50
2023-01-19T20:36:41.705Z,78.40
2023-01-19T20:39:11.098Z,71.45
2023-01-19T20:41:43.317Z,67.40
2023-01-19T20:44:17.120Z,77.15
2023-01-19T20:46:44.818Z,72.28
2023-01-19T20:49:13.564Z,68.53
2023-01-19T20:51:43.506Z,65.78
2023-01-19T20:54:12.688Z,73.65
2023-01-19T20:56:41.587Z,71.28
2023-01-19T20:59:11.283Z,74.97
2023-01-19T21:01:40.236Z,69.75
2023-01-19T21:04:08.889Z,68.00
2023-01-19T21:06:37.293Z,72.65
2023-01-19T21:09:05.686Z,69.93
2023-01-19T21:11:33.360Z,68.93
2023-01-19T21:14:00.895Z,74.35
2023-01-19T21:16:30.981Z,68.80
2023-01-19T21:18:59.035Z,66.90
2023-01-19T21:21:31.826Z,71.55
2023-01-19T21:24:01.572Z,70.32
2023-01-19T21:26:30.295Z,67.20
2023-01-19T21:28:59.514Z,64.38
2023-01-19T21:31:28.497Z,69.78
2023-01-19T21:33:57.716Z,72.38
2023-01-19T21:36:25.769Z,77.13
2023-01-19T21:38:55.635Z,66.13
2023-01-19T21:41:23.965Z,71.05
2023-01-19T21:43:51.627Z,67.10
2023-01-19T21:46:28.848Z,67.72
2023-01-19T21:49:01.821Z,70.40
2023-01-19T21:51:34.819Z,54.60
2023-01-19T21:54:04.304Z,67.63
2023-01-19T21:56:32.776Z,60.15
2023-01-19T21:59:04.173Z,62.45
2023-01-19T22:01:35.596Z,68.10
2023-01-19T22:04:03.613Z,66.93
2023-01-19T22:06:31.728Z,65.30
2023-01-19T22:09:00.740Z,62.58
2023-01-19T22:11:30.083Z,57.97
2023-01-19T22:14:01.434Z,56.20
2023-01-19T22:16:30.266Z,68.93
2023-01-19T22:19:01.189Z,62.72
2023-01-19T22:21:31.956Z,58.38
2023-01-19T22:24:01.319Z,62.60
2023-01-19T22:26:31.010Z,69.20
2023-01-19T22:29:01.047Z,85.05
2023-01-19T22:31:30.775Z,86.32
2023-01-19T22:33:58.840Z,105.20
2023-01-19T22:36:28.086Z,78.70
2023-01-19T22:39:00.837Z,78.68
2023-01-19T22:41:34.744Z,72.82
2023-01-19T22:44:05.748Z,82.43
2023-01-19T22:46:35.440Z,75.40
2023-01-19T22:49:03.972Z,83.32
2023-01-19T22:51:32.647Z,81.03
2023-01-19T22:54:00.881Z,81.82
2023-01-19T22:56:30.967Z,72.55
2023-01-19T22:58:59.723Z,75.28
2023-01-19T23:01:30.363Z,68.28
2023-01-19T23:03:58.198Z,76.82
2023-01-19T23:06:31.331Z,66.85
2023-01-19T23:09:01.328Z,70.20
2023-01-19T23:11:36.055Z,77.60
2023-01-19T23:14:07.072Z,67.88
2023-01-19T23:16:36.212Z,70.13
2023-01-19T23:19:05.020Z,64.28
2023-01-19T23:21:33.393Z,68.30
2023-01-19T23:24:04.141Z,67.05
2023-01-19T23:26:38.449Z,65.88
2023-01-19T23:29:13.085Z,59.47
2023-01-19T23:31:44.896Z,65.47
2023-01-19T23:34:13.445Z,62.80
2023-01-19T23:36:42.745Z,62.67
2023-01-19T23:39:19.902Z,64.05
2023-01-19T23:41:48.695Z,64.40
2023-01-19T23:44:17.304Z,66.90
2023-01-19T23:46:45.972Z,65.20
2023-01-19T23:49:14.456Z,67.25
2023-01-19T23:51:42.762Z,71.68
2023-01-19T23:54:12.214Z,63.83
2023-01-19T23:56:40.287Z,65.35
2023-01-19T23:59:10.536Z,62.55
